CDT,Max TemperatureF,Mean TemperatureF,Min TemperatureF,Max Dew PointF,MeanDew PointF,Min DewpointF,Max Humidity, Mean Humidity, Min Humidity, Max Sea Level PressureIn, Mean Sea Level PressureIn, Min Sea Level PressureIn, Max VisibilityMiles, Mean VisibilityMiles, Min VisibilityMiles, Max Wind SpeedMPH, Mean Wind SpeedMPH, Max Gust SpeedMPH,PrecipitationIn, CloudCover, Events, WindDirDegrees
2012-9-1,85,79,73,76,72,70,87,76,65,30.08,30.02,29.90,10,8,0,26,9,36,0.86,5,Fog-Rain-Thunderstorm,183
2012-9-2,83,78,72,75,72,69,94,82,69,29.91,29.86,29.80,10,8,2,20,9,25,0.35,7,Rain,210
2012-9-3,82,78,73,75,73,71,100,93,85,29.88,29.84,29.80,10,7,1,15,6,20,0.25,8,Rain,248
2012-9-4,89,81,72,75,73,72,94,75,56,29.93,29.87,29.84,10,5,0,12,3,15,0.00,5,Fog,344
2012-9-5,90,80,70,74,72,69,100,82,63,29.90,29.86,29.80,10,5,0,29,3,43,0.05,2,Fog-Rain-Thunderstorm,145
2012-9-6,89,77,65,72,68,64,100,78,55,30.02,29.94,29.88,10,7,0,29,5,37,0.01,2,Fog-Rain-Thunderstorm,205
2012-9-7,90,79,68,73,70,65,94,76,55,29.95,29.85,29.72,10,9,1,22,7,30,0.32,2,Rain-Thunderstorm,219
2012-9-8,75,66,56,70,62,51,100,73,46,30.00,29.87,29.75,10,7,1,22,9,26,0.53,6,Rain-Thunderstorm,317
2012-9-9,80,66,51,57,54,51,100,70,39,30.09,30.02,29.97,10,10,9,16,6,20,0.00,0,,308
2012-9-10,80,67,53,58,54,52,93,68,42,30.19,30.13,30.08,10,10,9,12,3,15,0.00,0,,62
2012-9-11,83,68,52,60,56,51,100,71,42,30.23,30.17,30.14,10,8,0,9,2,13,0.00,0,Fog,168
2012-9-12,82,71,60,63,59,54,97,68,39,30.28,30.22,30.18,10,10,7,17,4,21,0.00,5,,158
2012-9-13,83,73,62,63,60,58,90,67,43,30.28,30.23,30.18,10,9,5,13,4,17,0.00,4,,143
2012-9-14,83,72,61,67,63,59,93,74,55,30.24,30.22,30.20,10,9,5,16,3,20,0.01,3,Rain,336
2012-9-15,78,69,60,65,62,57,97,82,60,30.26,30.20,30.11,10,9,5,10,5,14,0.02,5,Rain,36
2012-9-16,79,71,63,67,64,59,100,84,64,30.14,30.07,30.00,10,7,0,8,2,12,0.46,5,Fog-Rain,72
2012-9-17,72,70,67,68,66,64,100,92,84,30.00,29.88,29.75,10,6,1,9,2,12,0.42,7,Rain-Thunderstorm,100
2012-9-18,70,59,48,66,57,42,100,70,39,30.08,29.84,29.72,10,8,4,22,10,30,0.03,4,Rain,309
2012-9-19,72,58,43,48,44,39,100,67,33,30.19,30.12,30.07,10,10,10,9,1,14,0.00,0,,81
2012-9-20,79,62,45,55,49,45,100,68,35,30.10,30.05,29.97,10,6,0,14,5,18,0.00,0,Fog,197
2012-9-21,80,67,54,62,56,51,93,71,48,30.05,29.95,29.84,10,10,8,18,8,23,0.00,1,,205
2012-9-22,79,65,50,56,48,39,84,56,28,30.18,30.03,29.88,10,10,10,18,8,23,0.00,0,,307
2012-9-23,69,55,41,43,39,36,89,61,32,30.28,30.24,30.18,10,10,10,13,3,16,0.00,0,,2
2012-9-24,72,56,39,47,42,37,96,64,31,30.29,30.19,30.06,10,10,0,12,3,15,0.00,0,,149
2012-9-25,83,68,52,67,58,47,83,69,55,30.07,30.03,29.96,10,10,9,20,9,25,0.00,0,,188
2012-9-26,85,75,64,67,60,51,73,61,49,30.17,30.09,30.03,10,10,5,28,9,32,0.11,2,Rain-Thunderstorm,215
2012-9-27,81,73,64,66,64,63,93,74,54,30.17,30.12,30.07,10,9,5,12,3,14,0.06,4,Rain-Thunderstorm,284
2012-9-28,75,70,64,68,66,61,100,90,79,30.13,30.08,30.03,10,6,1,15,4,18,0.07,6,Rain-Thunderstorm,355
2012-9-29,76,66,55,58,54,52,93,70,46,30.07,30.02,29.97,10,10,6,13,5,18,0.00,1,,359
2012-9-30,74,63,51,59,54,50,100,86,46,29.96,29.90,29.81,10,4,0,5,1,8,0.01,0,Fog,92